createdAt,value
2018-09-26T00:02:27.185Z,9.20
2018-09-26T00:04:56.134Z,9.20
2018-09-26T00:07:24.968Z,9.10
2018-09-26T00:09:53.884Z,9.10
2018-09-26T00:12:22.773Z,9.00
2018-09-26T00:14:51.783Z,9.00
2018-09-26T00:17:20.750Z,8.90
2018-09-26T00:19:50.020Z,8.80
2018-09-26T00:22:18.860Z,8.80
2018-09-26T00:24:49.909Z,8.90
2018-09-26T00:27:18.701Z,9.00
2018-09-26T00:29:48.406Z,9.00
2018-09-26T00:32:17.610Z,9.00
2018-09-26T00:34:46.447Z,8.90
2018-09-26T00:37:15.409Z,9.00
2018-09-26T00:39:44.299Z,9.00
2018-09-26T00:42:13.325Z,9.00
2018-09-26T00:44:42.232Z,8.90
2018-09-26T00:47:11.083Z,8.90
2018-09-26T00:49:39.927Z,8.80
2018-09-26T00:52:08.900Z,8.80
2018-09-26T00:54:37.843Z,8.80
2018-09-26T00:57:06.769Z,8.90
2018-09-26T00:59:35.872Z,9.00
2018-09-26T01:02:04.902Z,8.90
2018-09-26T01:04:33.811Z,8.90
2018-09-26T01:07:02.836Z,9.00
2018-09-26T01:09:31.726Z,9.10
2018-09-26T01:12:00.835Z,9.00
2018-09-26T01:14:29.768Z,9.00
2018-09-26T01:16:58.785Z,9.00
2018-09-26T01:19:28.039Z,9.00
2018-09-26T01:21:56.954Z,9.00
2018-09-26T01:24:25.799Z,9.00
2018-09-26T01:26:54.924Z,8.90
2018-09-26T01:29:23.756Z,8.90
2018-09-26T01:31:52.572Z,9.00
2018-09-26T01:34:21.627Z,8.90
2018-09-26T01:36:50.518Z,9.00
2018-09-26T01:39:19.368Z,8.80
2018-09-26T01:41:48.160Z,8.90
2018-09-26T01:44:17.101Z,8.90
2018-09-26T01:46:46.005Z,8.90
2018-09-26T01:49:14.887Z,8.80
2018-09-26T01:51:43.731Z,8.90
2018-09-26T01:54:12.617Z,8.80
2018-09-26T01:56:41.487Z,8.80
2018-09-26T01:59:10.616Z,8.80
2018-09-26T02:01:39.514Z,8.80
2018-09-26T02:04:08.461Z,8.70
2018-09-26T02:06:37.377Z,8.60
2018-09-26T02:09:08.496Z,8.60
2018-09-26T02:11:37.830Z,8.60
2018-09-26T02:14:06.736Z,8.60
2018-09-26T02:16:35.675Z,8.60
2018-09-26T02:19:04.547Z,8.60
2018-09-26T02:21:33.488Z,8.60
2018-09-26T02:24:02.566Z,8.60
2018-09-26T02:26:31.940Z,8.50
2018-09-26T02:29:01.023Z,8.50
2018-09-26T02:31:29.910Z,8.40
2018-09-26T02:33:58.747Z,8.40
2018-09-26T02:36:27.664Z,8.30
2018-09-26T02:38:56.491Z,8.20
2018-09-26T02:41:25.719Z,8.10
2018-09-26T02:43:54.657Z,7.90
2018-09-26T02:46:24.581Z,7.80
2018-09-26T02:48:58.616Z,7.70
2018-09-26T02:51:27.433Z,7.60
2018-09-26T02:53:56.616Z,7.50
2018-09-26T02:56:25.713Z,7.50
2018-09-26T02:58:54.548Z,7.50
2018-09-26T03:01:23.371Z,7.40
2018-09-26T03:03:52.396Z,7.40
2018-09-26T03:06:21.449Z,7.30
2018-09-26T03:08:50.339Z,7.30
2018-09-26T03:11:19.299Z,7.10
2018-09-26T03:13:48.158Z,7.10
2018-09-26T03:16:17.791Z,7.00
2018-09-26T03:18:46.928Z,6.90
2018-09-26T03:21:16.170Z,6.80
2018-09-26T03:23:45.094Z,6.70
2018-09-26T03:26:13.945Z,6.60
2018-09-26T03:28:42.836Z,6.50
2018-09-26T03:31:11.647Z,6.50
2018-09-26T03:33:40.549Z,6.40
2018-09-26T03:36:09.428Z,6.30
2018-09-26T03:38:38.337Z,6.40
2018-09-26T03:41:07.256Z,6.30
2018-09-26T03:43:36.348Z,6.20
2018-09-26T03:46:05.511Z,6.10
2018-09-26T03:48:34.637Z,6.00
2018-09-26T03:51:03.611Z,5.90
2018-09-26T03:53:32.492Z,5.90
2018-09-26T03:56:01.593Z,5.90
2018-09-26T03:58:30.482Z,5.90
2018-09-26T04:00:59.508Z,6.00
2018-09-26T04:03:28.377Z,6.00
2018-09-26T04:05:57.419Z,6.00
2018-09-26T04:08:26.336Z,6.00
2018-09-26T04:10:55.279Z,6.10
2018-09-26T04:13:24.164Z,6.20
2018-09-26T04:15:54.140Z,6.20
2018-09-26T04:18:26.310Z,6.40
2018-09-26T04:20:55.977Z,6.60
2018-09-26T04:23:24.872Z,6.70
2018-09-26T04:25:53.761Z,7.00
2018-09-26T04:28:22.699Z,7.10
2018-09-26T04:30:51.751Z,7.20
2018-09-26T04:33:20.676Z,7.30
2018-09-26T04:35:49.530Z,7.50
2018-09-26T04:38:18.596Z,7.60
2018-09-26T04:40:47.476Z,7.70
2018-09-26T04:43:16.447Z,7.60
2018-09-26T04:45:45.521Z,7.70
2018-09-26T04:48:14.338Z,7.90
2018-09-26T04:50:43.405Z,8.00
2018-09-26T04:53:12.231Z,8.10
2018-09-26T04:55:41.237Z,8.10
2018-09-26T04:58:11.464Z,8.10
2018-09-26T05:00:40.989Z,8.10
2018-09-26T05:03:10.108Z,8.00
2018-09-26T05:05:38.937Z,8.00
2018-09-26T05:08:07.869Z,7.90
2018-09-26T05:10:36.657Z,7.80
2018-09-26T05:13:05.566Z,7.70
2018-09-26T05:15:34.668Z,7.70
2018-09-26T05:18:03.614Z,7.70
2018-09-26T05:20:32.704Z,7.70
2018-09-26T05:23:01.627Z,7.70
2018-09-26T05:25:30.584Z,7.70
2018-09-26T05:27:59.627Z,7.70
2018-09-26T05:30:28.637Z,7.60
2018-09-26T05:32:57.596Z,7.70
2018-09-26T05:35:26.466Z,7.70
2018-09-26T05:37:55.484Z,7.60
2018-09-26T05:40:24.307Z,7.50
2018-09-26T05:42:53.215Z,7.40
2018-09-26T05:45:22.110Z,7.30
2018-09-26T05:47:51.004Z,7.20
2018-09-26T05:50:19.945Z,7.10
2018-09-26T05:52:48.839Z,7.00
2018-09-26T05:55:17.704Z,7.00
2018-09-26T05:57:46.791Z,7.00
2018-09-26T06:00:15.702Z,7.00
2018-09-26T06:02:44.707Z,6.90
2018-09-26T06:05:13.575Z,6.90
2018-09-26T06:07:42.532Z,6.80
2018-09-26T06:10:11.395Z,6.70
2018-09-26T06:12:40.390Z,6.60
2018-09-26T06:15:09.140Z,6.60
2018-09-26T06:17:38.080Z,6.60
2018-09-26T06:20:07.464Z,6.60
2018-09-26T06:22:36.329Z,6.60
2018-09-26T06:25:05.428Z,6.60
2018-09-26T06:27:34.364Z,6.60
2018-09-26T06:30:03.489Z,6.50
2018-09-26T06:32:32.583Z,6.50
2018-09-26T06:35:01.547Z,6.50
2018-09-26T06:37:30.486Z,6.50
2018-09-26T06:39:59.383Z,6.60
2018-09-26T06:42:28.271Z,6.80
2018-09-26T06:44:57.158Z,6.90
2018-09-26T06:47:26.171Z,7.00
2018-09-26T06:49:55.355Z,7.10
2018-09-26T06:52:24.555Z,7.20
2018-09-26T06:54:54.403Z,7.20
2018-09-26T06:57:23.533Z,7.30
2018-09-26T06:59:52.403Z,7.40
2018-09-26T07:02:21.232Z,7.50
2018-09-26T07:04:50.037Z,7.60
2018-09-26T07:07:18.847Z,7.70
2018-09-26T07:09:47.692Z,7.70
2018-09-26T07:12:16.610Z,7.80
2018-09-26T07:14:46.499Z,7.90
2018-09-26T07:17:15.388Z,8.00
2018-09-26T07:19:44.361Z,8.10
2018-09-26T07:22:14.181Z,8.20
2018-09-26T07:24:43.156Z,8.30
2018-09-26T07:27:13.462Z,8.40
2018-09-26T07:29:43.199Z,8.50
2018-09-26T07:32:14.165Z,8.60
2018-09-26T07:34:43.011Z,8.70
2018-09-26T07:37:12.084Z,8.70
2018-09-26T07:39:40.927Z,8.70
2018-09-26T07:42:09.836Z,8.80
2018-09-26T07:44:38.661Z,8.80
2018-09-26T07:47:07.503Z,9.00
2018-09-26T07:49:36.441Z,9.00
2018-09-26T07:52:05.336Z,9.00
2018-09-26T07:54:34.183Z,9.10
2018-09-26T07:57:05.287Z,9.20
2018-09-26T07:59:34.133Z,9.30
2018-09-26T08:02:03.000Z,9.30
2018-09-26T08:04:32.471Z,9.40
2018-09-26T08:07:01.545Z,9.50
2018-09-26T08:09:30.601Z,9.60
2018-09-26T08:11:59.500Z,9.70
2018-09-26T08:14:35.792Z,9.90
2018-09-26T08:17:05.149Z,10.10
2018-09-26T08:19:35.299Z,10.20
2018-09-26T08:22:04.959Z,10.20
2018-09-26T08:24:35.203Z,10.30
2018-09-26T08:27:07.714Z,10.30
2018-09-26T08:29:38.012Z,10.40
2018-09-26T08:32:09.736Z,10.40
2018-09-26T08:34:39.849Z,10.50
2018-09-26T08:37:08.812Z,10.50
2018-09-26T08:39:43.023Z,10.70
2018-09-26T08:42:14.460Z,10.80
2018-09-26T08:44:44.201Z,10.90
2018-09-26T08:47:14.374Z,10.90
2018-09-26T08:49:46.281Z,10.90
2018-09-26T08:52:17.954Z,10.90
2018-09-26T08:54:52.538Z,10.90
2018-09-26T08:57:25.282Z,11.00
2018-09-26T08:59:54.727Z,11.10
2018-09-26T09:02:24.990Z,11.20
2018-09-26T09:04:54.830Z,11.30
2018-09-26T09:07:23.753Z,11.40
2018-09-26T09:09:52.708Z,11.60
2018-09-26T09:12:35.106Z,11.70
2018-09-26T09:15:06.077Z,11.90
2018-09-26T09:17:35.548Z,12.00
2018-09-26T09:20:04.985Z,12.10
2018-09-26T09:22:38.046Z,12.40
2018-09-26T09:25:14.838Z,12.90
2018-09-26T09:27:44.651Z,13.70
2018-09-26T09:30:32.178Z,14.30
2018-09-26T09:33:01.774Z,14.60
2018-09-26T09:38:34.940Z,15.40
2018-09-26T09:41:05.474Z,15.70
2018-09-26T10:01:37.085Z,15.90
2018-09-26T10:04:08.531Z,16.00
2018-09-26T10:06:37.882Z,15.70
2018-09-26T10:09:11.436Z,15.50
2018-09-26T10:11:40.712Z,15.40
2018-09-26T10:14:10.123Z,15.20
2018-09-26T10:16:39.208Z,15.10
2018-09-26T10:19:08.179Z,15.00
2018-09-26T10:21:38.097Z,14.90
2018-09-26T10:24:07.291Z,15.00
2018-09-26T10:26:38.046Z,15.00
2018-09-26T10:29:10.965Z,15.00
2018-09-26T10:31:42.874Z,15.00
2018-09-26T10:34:15.145Z,15.00
2018-09-26T10:37:00.059Z,15.00
2018-09-26T10:39:31.408Z,14.90
2018-09-26T10:42:00.622Z,15.00
2018-09-26T10:44:29.979Z,14.90
2018-09-26T10:46:59.292Z,14.90
2018-09-26T10:49:28.343Z,15.00
2018-09-26T10:51:57.348Z,15.10
2018-09-26T10:54:26.194Z,15.10
2018-09-26T10:56:57.926Z,15.30
2018-09-26T10:59:27.542Z,15.40
2018-09-26T11:01:58.849Z,15.50
2018-09-26T11:04:27.844Z,15.50
2018-09-26T11:06:57.118Z,15.60
2018-09-26T11:09:38.977Z,15.60
2018-09-26T11:12:08.073Z,15.60
2018-09-26T11:14:54.553Z,15.50
2018-09-26T11:17:27.630Z,15.60
2018-09-26T11:20:00.409Z,15.70
2018-09-26T11:22:35.517Z,15.70
2018-09-26T11:25:04.777Z,15.80
2018-09-26T11:27:33.756Z,16.20
2018-09-26T11:30:02.759Z,16.40
2018-09-26T11:32:32.205Z,16.70
2018-09-26T11:35:02.068Z,17.20
2018-09-26T11:37:32.911Z,17.00
2018-09-26T11:40:18.829Z,17.30
2018-09-26T11:42:48.057Z,17.20
2018-09-26T11:45:18.662Z,17.50
2018-09-26T11:47:47.609Z,17.60
2018-09-26T11:50:16.578Z,17.80
2018-09-26T11:52:45.395Z,18.30
2018-09-26T11:55:14.471Z,18.50
2018-09-26T11:57:43.367Z,18.50
2018-09-26T12:00:12.176Z,18.60
2018-09-26T12:02:42.103Z,18.90
2018-09-26T12:05:11.051Z,18.50
2018-09-26T12:07:40.007Z,18.60
2018-09-26T12:10:09.029Z,18.90
2018-09-26T12:12:38.177Z,19.10
2018-09-26T12:15:07.261Z,19.20
2018-09-26T12:17:36.159Z,19.30
2018-09-26T12:20:08.149Z,19.30
2018-09-26T12:22:37.086Z,19.50
2018-09-26T12:25:06.019Z,19.50
2018-09-26T12:27:35.334Z,19.40
2018-09-26T12:30:04.980Z,19.50
2018-09-26T12:32:33.868Z,19.40
2018-09-26T12:35:02.794Z,19.60
2018-09-26T12:37:31.674Z,20.00
2018-09-26T12:40:00.640Z,20.10
2018-09-26T12:42:29.561Z,20.20
2018-09-26T12:44:58.443Z,20.50
2018-09-26T12:47:27.733Z,20.70
2018-09-26T12:49:58.410Z,20.70
2018-09-26T12:52:27.771Z,20.60
2018-09-26T12:54:56.786Z,20.40
2018-09-26T12:57:25.590Z,20.20
2018-09-26T12:59:54.491Z,20.50
2018-09-26T13:02:23.504Z,20.80
2018-09-26T13:04:53.154Z,20.90
2018-09-26T13:07:22.088Z,21.20
2018-09-26T13:09:52.973Z,21.40
2018-09-26T13:12:22.080Z,21.70
2018-09-26T13:14:50.983Z,22.10
2018-09-26T13:17:19.947Z,22.20
2018-09-26T13:19:48.985Z,22.40
2018-09-26T13:22:17.932Z,22.10
2018-09-26T13:24:49.595Z,21.80
2018-09-26T13:27:18.783Z,21.90
2018-09-26T13:29:47.739Z,22.20
2018-09-26T13:32:16.665Z,22.30
2018-09-26T13:34:45.590Z,22.40
2018-09-26T13:37:14.540Z,22.20
2018-09-26T13:39:43.468Z,22.30
2018-09-26T13:42:12.485Z,22.50
2018-09-26T13:44:41.472Z,22.60
2018-09-26T13:47:10.809Z,22.80
2018-09-26T13:49:41.495Z,22.40
2018-09-26T13:52:10.593Z,22.10
2018-09-26T13:57:33.230Z,22.30
2018-09-26T14:00:03.435Z,22.30
2018-09-26T14:02:32.872Z,22.40
2018-09-26T14:05:01.958Z,22.30
2018-09-26T14:07:30.915Z,22.70
2018-09-26T14:09:59.865Z,22.80
2018-09-26T14:12:30.920Z,22.90
2018-09-26T14:14:59.785Z,23.00
2018-09-26T14:17:28.877Z,22.90
2018-09-26T14:20:14.407Z,23.00
2018-09-26T14:22:43.378Z,22.80
2018-09-26T14:25:12.303Z,22.90
2018-09-26T14:27:41.333Z,22.80
2018-09-26T14:30:10.304Z,22.60
2018-09-26T14:32:39.372Z,22.80
2018-09-26T14:35:08.312Z,22.90
2018-09-26T14:37:37.177Z,22.90
2018-09-26T14:40:06.234Z,22.70
2018-09-26T14:42:35.457Z,22.60
2018-09-26T14:45:04.562Z,22.20
2018-09-26T14:47:33.768Z,22.10
2018-09-26T14:50:07.471Z,22.10
2018-09-26T14:52:36.426Z,22.10
2018-09-26T14:55:05.445Z,22.00
2018-09-26T14:57:34.387Z,22.10
2018-09-26T15:00:03.634Z,22.20
2018-09-26T15:02:32.816Z,22.00
2018-09-26T15:05:02.005Z,21.80
2018-09-26T15:07:31.054Z,21.70
2018-09-26T15:10:00.190Z,21.60
2018-09-26T15:12:29.383Z,21.50
2018-09-26T15:14:58.800Z,21.50
2018-09-26T15:17:27.908Z,21.40
2018-09-26T15:19:56.982Z,21.30
2018-09-26T15:22:26.114Z,21.20
2018-09-26T15:24:55.088Z,21.10
2018-09-26T15:27:24.256Z,21.00
2018-09-26T15:29:53.322Z,20.70
2018-09-26T15:32:22.410Z,20.50
2018-09-26T15:34:51.407Z,20.50
2018-09-26T15:37:20.376Z,20.30
2018-09-26T15:39:49.330Z,20.20
2018-09-26T15:42:18.392Z,20.10
2018-09-26T15:44:47.301Z,20.00
2018-09-26T15:47:16.199Z,19.80
2018-09-26T15:49:45.297Z,19.70
2018-09-26T15:52:14.370Z,19.70
2018-09-26T15:54:43.325Z,19.60
2018-09-26T15:57:12.334Z,19.50
2018-09-26T15:59:41.283Z,19.50
2018-09-26T16:02:11.528Z,19.40
2018-09-26T16:04:40.376Z,19.30
2018-09-26T16:07:09.336Z,19.20
2018-09-26T16:09:38.208Z,19.30
2018-09-26T16:12:07.391Z,19.20
2018-09-26T16:14:36.292Z,19.20
2018-09-26T16:17:05.203Z,19.30
2018-09-26T16:19:34.136Z,19.20
2018-09-26T16:22:03.060Z,19.20
2018-09-26T16:24:31.977Z,19.20
2018-09-26T16:27:00.985Z,19.10
2018-09-26T16:29:29.862Z,19.10
2018-09-26T16:31:59.120Z,19.00
2018-09-26T16:34:28.081Z,19.00
2018-09-26T16:36:57.268Z,18.90
2018-09-26T16:39:26.379Z,18.90
2018-09-26T16:41:55.287Z,18.80
2018-09-26T16:44:24.371Z,18.70
2018-09-26T16:46:53.020Z,18.60
2018-09-26T16:49:21.964Z,18.40
2018-09-26T16:51:51.086Z,18.20
2018-09-26T16:54:20.215Z,17.90
2018-09-26T16:56:49.147Z,17.80
2018-09-26T16:59:19.343Z,17.60
2018-09-26T17:01:48.318Z,17.50
2018-09-26T17:04:18.991Z,17.30
2018-09-26T17:06:47.825Z,17.10
2018-09-26T17:09:17.100Z,17.00
2018-09-26T17:11:47.004Z,16.80
2018-09-26T17:14:15.983Z,16.70
2018-09-26T17:16:44.767Z,16.50
2018-09-26T17:19:13.706Z,16.40
2018-09-26T17:21:42.525Z,16.30
2018-09-26T17:24:11.435Z,16.10
2018-09-26T17:26:40.176Z,16.00
2018-09-26T17:29:09.105Z,15.90
2018-09-26T17:31:38.422Z,15.80
2018-09-26T17:34:07.278Z,15.60
2018-09-26T17:36:36.067Z,15.50
2018-09-26T17:39:06.752Z,15.40
2018-09-26T17:41:36.667Z,15.40
2018-09-26T17:44:05.744Z,15.20
2018-09-26T17:46:34.708Z,15.20
2018-09-26T17:49:03.568Z,15.10
2018-09-26T17:51:32.388Z,14.90
2018-09-26T17:54:01.299Z,14.90
2018-09-26T17:56:30.091Z,14.80
2018-09-26T17:58:58.923Z,14.70
2018-09-26T18:01:27.780Z,14.50
2018-09-26T18:03:56.537Z,14.50
2018-09-26T18:06:25.353Z,14.40
2018-09-26T18:08:54.207Z,14.30
2018-09-26T18:11:23.016Z,14.30
2018-09-26T18:13:51.832Z,14.20
2018-09-26T18:16:20.623Z,14.10
2018-09-26T18:18:49.471Z,14.00
2018-09-26T18:21:18.254Z,14.00
2018-09-26T18:23:47.124Z,14.00
2018-09-26T18:26:15.910Z,14.00
2018-09-26T18:28:44.825Z,13.90
2018-09-26T18:31:13.780Z,13.90
2018-09-26T18:33:42.570Z,13.80
2018-09-26T18:36:11.408Z,13.70
2018-09-26T18:38:40.297Z,13.60
2018-09-26T18:41:09.188Z,13.60
2018-09-26T18:43:38.168Z,13.50
2018-09-26T18:46:07.030Z,13.50
2018-09-26T18:48:36.013Z,13.40
2018-09-26T18:51:05.031Z,13.30
2018-09-26T18:53:33.975Z,13.20
2018-09-26T18:56:02.824Z,13.20
2018-09-26T18:58:31.700Z,13.10
2018-09-26T19:01:00.742Z,13.00
2018-09-26T19:03:29.807Z,13.00
2018-09-26T19:05:58.633Z,12.90
2018-09-26T19:08:27.496Z,12.80
2018-09-26T19:10:56.372Z,12.80
2018-09-26T19:13:25.221Z,12.70
2018-09-26T19:15:54.183Z,12.70
2018-09-26T19:18:23.074Z,12.50
2018-09-26T19:20:51.962Z,12.50
2018-09-26T19:23:20.949Z,12.50
2018-09-26T19:25:49.936Z,12.40
2018-09-26T19:28:18.773Z,12.40
2018-09-26T19:30:47.623Z,12.50
2018-09-26T19:33:16.486Z,12.40
2018-09-26T19:35:45.767Z,12.30
2018-09-26T19:38:14.648Z,12.30
2018-09-26T19:40:43.460Z,12.20
2018-09-26T19:43:12.343Z,12.10
2018-09-26T19:45:41.383Z,12.10
2018-09-26T19:48:10.279Z,12.10
2018-09-26T19:50:39.256Z,12.00
2018-09-26T19:53:08.236Z,11.90
2018-09-26T19:55:37.092Z,11.90
2018-09-26T19:58:06.020Z,11.80
2018-09-26T20:00:34.848Z,11.80
2018-09-26T20:03:05.035Z,11.80
2018-09-26T20:05:33.980Z,11.70
2018-09-26T20:08:02.946Z,11.70
2018-09-26T20:10:31.810Z,11.60
2018-09-26T20:13:00.784Z,11.60
2018-09-26T20:15:29.712Z,11.60
2018-09-26T20:17:59.015Z,11.60
2018-09-26T20:20:28.047Z,11.60
2018-09-26T20:22:56.982Z,11.50
2018-09-26T20:25:25.953Z,11.40
2018-09-26T20:27:54.920Z,11.50
2018-09-26T20:30:23.855Z,11.40
2018-09-26T20:32:52.741Z,11.40
2018-09-26T20:35:21.567Z,11.40
2018-09-26T20:37:50.561Z,11.30
2018-09-26T20:40:19.381Z,11.30
2018-09-26T20:42:52.043Z,11.30
2018-09-26T20:45:21.035Z,11.20
2018-09-26T20:47:50.056Z,11.30
2018-09-26T20:50:18.875Z,11.20
2018-09-26T20:52:48.790Z,11.20
2018-09-26T20:55:17.681Z,11.10
2018-09-26T20:57:46.547Z,11.10
2018-09-26T21:00:15.445Z,11.10
2018-09-26T21:02:44.742Z,11.10
2018-09-26T21:05:13.681Z,11.00
2018-09-26T21:07:42.549Z,11.00
2018-09-26T21:10:11.408Z,10.90
2018-09-26T21:12:40.283Z,10.90
2018-09-26T21:15:09.322Z,11.00
2018-09-26T21:17:38.246Z,10.90
2018-09-26T21:20:08.425Z,11.00
2018-09-26T21:22:37.331Z,10.90
2018-09-26T21:25:06.155Z,10.80
2018-09-26T21:27:35.148Z,10.80
2018-09-26T21:30:04.970Z,10.70
2018-09-26T21:32:33.893Z,10.70
2018-09-26T21:35:03.254Z,10.70
2018-09-26T21:37:32.096Z,10.70
2018-09-26T21:40:00.968Z,10.70
2018-09-26T21:42:29.955Z,10.60
2018-09-26T21:44:59.795Z,10.60
2018-09-26T21:47:28.678Z,10.60
2018-09-26T21:49:57.601Z,10.50
2018-09-26T21:52:26.403Z,10.50
2018-09-26T21:54:55.196Z,10.50
2018-09-26T21:57:24.032Z,10.50
2018-09-26T21:59:52.819Z,10.50
2018-09-26T22:02:21.642Z,10.50
2018-09-26T22:04:55.906Z,10.40
2018-09-26T22:07:24.748Z,10.50
2018-09-26T22:09:53.511Z,10.30
2018-09-26T22:12:22.358Z,10.30
2018-09-26T22:14:51.152Z,10.20
2018-09-26T22:17:20.003Z,10.20
2018-09-26T22:19:48.892Z,10.10
2018-09-26T22:22:17.701Z,10.20
2018-09-26T22:24:46.626Z,10.10
2018-09-26T22:27:15.455Z,10.10
2018-09-26T22:29:44.555Z,10.10
2018-09-26T22:32:13.368Z,10.10
2018-09-26T22:34:43.270Z,10.10
2018-09-26T22:37:12.085Z,10.00
2018-09-26T22:39:40.877Z,10.10
2018-09-26T22:42:09.730Z,10.00
2018-09-26T22:44:38.503Z,10.00
2018-09-26T22:47:07.344Z,10.00
2018-09-26T22:49:36.180Z,10.00
2018-09-26T22:52:05.073Z,9.90
2018-09-26T22:54:34.011Z,9.90
2018-09-26T22:57:04.011Z,9.90
2018-09-26T22:59:32.830Z,9.80
2018-09-26T23:02:01.759Z,9.80
2018-09-26T23:04:30.552Z,9.80
2018-09-26T23:06:59.361Z,9.80
2018-09-26T23:09:28.144Z,9.80
2018-09-26T23:11:56.916Z,9.70
2018-09-26T23:14:25.688Z,9.70
2018-09-26T23:16:54.523Z,9.70
2018-09-26T23:19:23.392Z,9.60
2018-09-26T23:21:52.187Z,9.60
2018-09-26T23:24:21.005Z,9.60
2018-09-26T23:26:49.816Z,9.60
2018-09-26T23:29:18.604Z,9.50
2018-09-26T23:31:47.436Z,9.50
2018-09-26T23:34:16.264Z,9.50
2018-09-26T23:36:45.072Z,9.40
2018-09-26T23:39:13.902Z,9.50
2018-09-26T23:41:42.678Z,9.40
2018-09-26T23:44:11.511Z,9.40
2018-09-26T23:46:40.297Z,9.40
2018-09-26T23:49:09.419Z,9.50
2018-09-26T23:51:38.287Z,9.40
2018-09-26T23:54:07.079Z,9.50
2018-09-26T23:56:35.891Z,9.50
2018-09-26T23:59:05.756Z,9.40
